»·PEaware :: EAL1 KSEA-KPDX

EAL1 :: KSEA-KPDX

FLIGHT INFORMATION

Flight Status: Arrived
Operator:
Eastern Air Lines
More flights by this operator :: More flights under this callsign
Pilot: Anonymous 14085 (14085)
Aircraft: BOEING 727-100
(B721)
More flights by this aircraft type
Origin: KSEA Seattle-Tacoma Intl
United States
Destination: KPDX Portland Intl
United States
More flights between these airports :: More routes between these airports
Route: SEA HELNS5
File this flight plan on PilotEdge
Remarks:
Altitude:
(Current/Filed)
19,000ft
Speed:
(Current/Filed)
410kts
Departed: 20-May-17 08:35 PM
Arrived: 20-May-17 09:18 PM
Distance/Time
Traveled:
112nm/0:43
Distance/Time
To Go:
Arrived

Flight Plot

Page will automatically refresh every two minutes.


Map Options




Map Legend


Flown Route
Filed Route
Departure Airport
Arrival Airport
Navaid (VOR, NDB)
Fix

Horizontal Profiles

Position Reports

Time Latitude Longitude Heading Altitude Ground
Speed
20-May-17 19:51 47.438950 -122.315188 55 445ft 0kts
20-May-17 19:52 47.438950 -122.315188 55 445ft 0kts
20-May-17 19:53 47.438950 -122.315188 55 445ft 0kts
20-May-17 19:54 47.438950 -122.315188 55 445ft 0kts
20-May-17 19:55 47.438950 -122.315188 55 445ft 0kts
20-May-17 19:56 47.438950 -122.315188 55 445ft 0kts
20-May-17 19:57 47.438950 -122.315188 55 445ft 0kts
20-May-17 19:58 47.438950 -122.315188 55 445ft 0kts
20-May-17 19:59 47.438950 -122.315188 55 445ft 0kts
20-May-17 20:00 47.438950 -122.315188 55 445ft 0kts
20-May-17 20:01 47.438950 -122.315188 55 445ft 0kts
20-May-17 20:02 47.438950 -122.315188 55 445ft 0kts
20-May-17 20:03 47.438950 -122.315188 55 445ft 0kts
20-May-17 20:04 47.438950 -122.315188 55 445ft 0kts
20-May-17 20:05 47.438950 -122.315188 55 445ft 0kts
20-May-17 20:06 47.438950 -122.315188 55 445ft 0kts
20-May-17 20:07 47.438950 -122.315188 55 445ft 0kts
20-May-17 20:08 47.438950 -122.315188 55 445ft 0kts
20-May-17 20:09 47.438950 -122.315188 55 445ft 0kts
20-May-17 20:10 47.438950 -122.315188 55 445ft 0kts
20-May-17 20:11 47.438950 -122.315188 55 445ft 0kts
20-May-17 20:12 47.438950 -122.315188 55 445ft 0kts
20-May-17 20:13 47.438950 -122.315188 55 445ft 0kts
20-May-17 20:14 47.438950 -122.315188 55 445ft 0kts
20-May-17 20:15 47.438950 -122.315188 55 445ft 0kts
20-May-17 20:16 47.438950 -122.315188 55 445ft 0kts
20-May-17 20:17 47.438950 -122.315188 55 445ft 0kts
20-May-17 20:18 47.438950 -122.315187 55 445ft 0kts
20-May-17 20:19 47.438950 -122.315187 55 445ft 0kts
20-May-17 20:20 47.438950 -122.315187 55 445ft 0kts
20-May-17 20:21 47.438950 -122.315187 55 445ft 0kts
20-May-17 20:22 47.438955 -122.315176 55 445ft 0kts
20-May-17 20:23 47.440153 -122.315016 316 445ft 5kts
20-May-17 20:24 47.440661 -122.316385 270 445ft 0kts
20-May-17 20:25 47.440661 -122.316385 270 445ft 0kts
20-May-17 20:26 47.440661 -122.316385 270 445ft 0kts
20-May-17 20:27 47.440661 -122.316385 270 445ft 0kts
20-May-17 20:28 47.440661 -122.316385 270 445ft 0kts
20-May-17 20:29 47.440661 -122.316385 270 445ft 0kts
20-May-17 20:30 47.440661 -122.316385 270 445ft 0kts
20-May-17 20:31 47.440661 -122.316385 270 445ft 0kts
20-May-17 20:32 47.440661 -122.316385 270 445ft 0kts
20-May-17 20:33 47.440661 -122.316385 270 445ft 0kts
20-May-17 20:34 47.440661 -122.316385 270 445ft 0kts
20-May-17 20:35 47.440661 -122.316385 270 445ft 0kts
20-May-17 20:36 47.440661 -122.316385 270 445ft 0kts
20-May-17 20:37 47.442496 -122.318069 0 445ft 51kts
20-May-17 20:38 47.479136 -122.313232 12 2298ft 158kts
20-May-17 20:39 47.529194 -122.287704 15 5187ft 217kts
20-May-17 20:40 47.592643 -122.264865 7 8459ft 263kts
20-May-17 20:41 47.671562 -122.239729 7 11944ft 303kts
20-May-17 20:42 47.755314 -122.212051 7 15586ft 319kts
20-May-17 20:43 47.796893 -122.197630 155 16412ft 301kts
20-May-17 20:44 47.438945 -122.315198 55 445ft 0kts
20-May-17 20:45 47.438942 -122.315188 0 445ft 0kts
20-May-17 20:48 47.438947 -122.315188 55 445ft 0kts
20-May-17 20:49 47.439061 -122.314957 52 445ft 6kts
20-May-17 20:50 47.441102 -122.315852 333 445ft 0kts
20-May-17 20:51 47.442079 -122.316659 329 445ft 9kts
20-May-17 20:52 47.443516 -122.318038 2 445ft 28kts
20-May-17 20:53 47.484105 -122.312772 7 1683ft 235kts
20-May-17 20:54 47.556225 -122.296159 6 4733ft 283kts
20-May-17 20:55 47.631213 -122.287236 325 7261ft 270kts
20-May-17 20:56 47.635999 -122.374666 221 10395ft 268kts
20-May-17 20:57 47.561930 -122.356976 156 13165ft 311kts
20-May-17 20:58 47.484319 -122.307091 188 15651ft 309kts
20-May-17 20:59 47.396466 -122.310145 187 18029ft 324kts
20-May-17 21:00 47.305228 -122.311478 187 20229ft 335kts
20-May-17 21:01 47.200755 -122.313135 186 19300ft 411kts
20-May-17 21:02 47.080457 -122.314793 185 19240ft 456kts
20-May-17 21:03 46.948791 -122.316647 185 19248ft 494kts
20-May-17 21:04 46.809861 -122.318798 185 19244ft 520kts
20-May-17 21:05 46.670358 -122.333242 189 19225ft 496kts
20-May-17 21:06 46.535705 -122.349241 189 19235ft 480kts
20-May-17 21:07 46.403320 -122.342738 176 19230ft 475kts
20-May-17 21:08 46.284714 -122.318447 177 19208ft 463kts
20-May-17 21:09 46.165234 -122.355442 205 18943ft 434kts
20-May-17 21:10 46.054907 -122.417094 205 18206ft 426kts
20-May-17 21:11 45.943645 -122.480482 204 16652ft 441kts
20-May-17 21:12 45.830653 -122.544047 204 14290ft 426kts
20-May-17 21:13 45.734758 -122.585220 170 11230ft 325kts
20-May-17 21:14 45.676658 -122.508142 127 8315ft 272kts
20-May-17 21:15 45.633005 -122.426172 127 5401ft 252kts
20-May-17 21:16 45.583535 -122.359342 179 2517ft 262kts
20-May-17 21:17 45.555320 -122.432651 266 1394ft 221kts
20-May-17 21:18 45.559717 -122.507437 296 923ft 161kts
20-May-17 21:19 45.578301 -122.553246 299 308ft 133kts
20-May-17 21:20 45.590322 -122.585502 274 41ft 18kts
20-May-17 21:21 45.590308 -122.587877 269 41ft 10kts
20-May-17 21:22 45.589842 -122.589153 194 41ft 0kts
20-May-17 21:23 45.589374 -122.589372 208 41ft 0kts
20-May-17 21:24 45.589374 -122.589372 208 41ft 0kts
20-May-17 21:25 45.589374 -122.589372 208 41ft 0kts
20-May-17 21:33 45.589350 -122.589390 208 41ft 0kts
20-May-17 21:34 45.589347 -122.589393 208 41ft 0kts
20-May-17 21:35 45.589347 -122.589393 208 41ft 0kts

Navigation Log

Ident Type
1. KSEA Airport
2. SEA Navaid
3. BUWZO Fix
4. HELNS Fix
5. KRATR Fix
6. BTG Navaid
7. KPDX Airport